Accueil
METAR-TAF:

METAR-TAF

Aéroports :

Aéroport international Casa de Campo

La Romana, République dominicaine

latitude: 18-25N, longitude: 068-57W, altitude: 8 m

Observation

Le bulletin a été fait il y a 7 heures et 14 minutes, à 03:00 UTC
Vent 4 kt de est/nord-est
Température 23°C
Humidité 94%
Pression 1019 hPa
Visibilité 10 km ou plus
Nuages épars à une hauteur de 1800 ft

METAR: MDLR 280300Z 06004KT 9999 SCT018 23/22 Q1019

Heure: 06:14 (10:14 UTC)

Prévision

Le bulletin a été fait il y a 6 heures et 14 minutes, à 04:00 UTC
Prévision valable du 28 à 06 UTC au 01 à 06 UTC
Vent kt de nord
Visibilité 10 km ou plus
Nuages épars à une hauteur de 1800 ft
Probabilité 30%
du 28 à 06 UTC au 28 à 12 UTC
Visibilité: 6000 m
Nuages fragmentés à une hauteur de 1600 ft
pluie faible
Evoluant progressivement
du 28 à 13 UTC au 28 à 15 UTC

TAF: MDLR 280400Z 2806/0106 00000KT 9999 SCT018 PROB30 2806/2812 6000 -RA BKN016 BECMG 2813/281510012KT

Observations et prévisions météorologiques de plus de 4000 aéroports (messages METAR et TAF).

Les stations disponibles sont représentées par des disques jaunes et rouges sur la carte.

Passer la souris dessus pour voir le nom de la station.

Cliquer dessus pour voir les observations et prévisions météorologiques.

Pour changer de carte: cliquez sur les boutons verts avec une croix noire pour zoomer, sur le bouton vert avec un tiret pour effectuer un zoom arrière, ou sur les flèches vertes pour les cartes adjacentes.


METAR-TAF: